Погода Агорана неделю

Калифорния, США

01 - 07 сентября
  • 01сентября
    Сегодня
    +16°
    +29°
    Ясно и безоблачно
    ВремяПогодаТемператураВлажностьДавлениеВетер, м/сВероятность осадков
    02:00Ясно и безоблачно+14°C80 %736 мм1.5 м/с2 %
    05:00Ясно и безоблачно+12°C82 %736 мм0.5 м/с2 %
    08:00Ясно и безоблачно+14°C77 %737 мм0.7 м/с2 %
    11:00Ясно и безоблачно+22°C52 %738 мм2.9 м/с2 %
    14:00Ясно и безоблачно+28°C38 %737 мм4.1 м/с2 %
    17:00Ясно и безоблачно+28°C29 %736 мм5.0 м/с2 %
    20:00Ясно и безоблачно+23°C42 %736 мм2.8 м/с2 %
    23:00Ясно и безоблачно+19°C57 %737 мм2.0 м/с2 %
  • 02сентября
    Среда
    +17°
    +30°
    Ясно и безоблачно
    ВремяПогодаТемператураВлажностьДавлениеВетер, м/сВероятность осадков
    02:00Ясно и безоблачно+17°C76 %737 мм1.3 м/с2 %
    05:00Ясно и безоблачно+16°C74 %737 мм0.4 м/с2 %
    08:00Ясно и безоблачно+17°C68 %737 мм0.3 м/с2 %
    11:00Ясно и безоблачно+24°C48 %738 мм2.7 м/с2 %
    14:00Ясно и безоблачно+28°C32 %737 мм4.1 м/с2 %
    17:00Ясно и безоблачно+29°C25 %736 мм4.7 м/с2 %
    20:00Ясно и безоблачно+24°C38 %736 мм2.9 м/с2 %
    23:00Ясно и безоблачно+21°C48 %737 мм2.2 м/с2 %
  • 03сентября
    Четверг
    +17°
    +29°
    Ясно и безоблачно
    ВремяПогодаТемператураВлажностьДавлениеВетер, м/сВероятность осадков
    02:00Ясно и безоблачно+19°C66 %736 мм1.4 м/с2 %
    05:00Ясно и безоблачно+18°C72 %736 мм1.0 м/с2 %
    08:00Ясно и безоблачно+18°C74 %736 мм1.2 м/с2 %
    11:00Ясно и безоблачно+24°C48 %736 мм2.9 м/с2 %
    14:00Ясно и безоблачно+28°C37 %735 мм4.0 м/с2 %
    17:00Ясно и безоблачно+28°C42 %734 мм4.8 м/с2 %
    20:00Ясно и безоблачно+23°C48 %734 мм2.8 м/с2 %
    23:00Ясно и безоблачно+20°C65 %735 мм2.9 м/с2 %
  • 04сентября
    Пятница
    +17°
    +29°
    Ясно и безоблачно
    ВремяПогодаТемператураВлажностьДавлениеВетер, м/сВероятность осадков
    02:00Облачно с прояснениями+18°C85 %735 мм1.2 м/с2 %
    05:00Облачно с прояснениями+18°C82 %735 мм0.9 м/с2 %
    08:00Ясно и безоблачно+18°C75 %735 мм0.3 м/с2 %
    11:00Ясно и безоблачно+24°C48 %736 мм2.6 м/с2 %
    14:00Ясно и безоблачно+29°C28 %735 мм4.0 м/с2 %
    17:00Ясно и безоблачно+28°C26 %735 мм4.7 м/с2 %
    20:00Ясно и безоблачно+23°C49 %735 мм2.2 м/с2 %
    23:00Ясно и безоблачно+21°C62 %735 мм1.4 м/с2 %
  • 05сентября
    Суббота
    +20°
    +31°
    Ясно и безоблачно
    ВремяПогодаТемператураВлажностьДавлениеВетер, м/сВероятность осадков
    02:00Ясно и безоблачно+19°C65 %735 мм1.0 м/с2 %
    05:00Ясно и безоблачно+18°C68 %735 мм0.5 м/с4 %
    08:00Ясно и безоблачно+19°C61 %736 мм0.5 м/с7 %
    11:00Ясно и безоблачно+27°C29 %737 мм2.6 м/с9 %
    14:00Ясно и безоблачно+30°C20 %736 мм4.0 м/с18 %
    17:00Ясно и безоблачно+30°C15 %735 мм4.9 м/с17 %
    20:00Ясно и безоблачно+25°C34 %735 мм2.3 м/с14 %
    23:00Ясно и безоблачно+23°C47 %736 мм1.9 м/с20 %
  • 06сентября
    Воскресенье
    +18°
    +32°
    Ясно и безоблачно
    ВремяПогодаТемператураВлажностьДавлениеВетер, м/сВероятность осадков
    05:00Ясно и безоблачно+21°C48 %735 мм0.7 м/с28 %
    11:00Ясно и безоблачно+27°C49 %736 мм1.9 м/с38 %
    17:00Ясно и безоблачно+32°C30 %735 мм3.7 м/с31 %
    23:00Ясно и безоблачно+22°C57 %735 мм1.4 м/с26 %
  • 07сентября
    Понедельник
    +17°
    +30°
    Ясно и безоблачно
    ВремяПогодаТемператураВлажностьДавлениеВетер, м/сВероятность осадков
    05:00Ясно и безоблачно+18°C65 %735 мм1.8 м/с22 %
    11:00Ясно и безоблачно+28°C33 %736 мм1.8 м/с23 %
    17:00Ясно и безоблачно+28°C34 %734 мм2.8 м/с24 %
    23:00Ясно и безоблачно+20°C63 %735 мм1.5 м/с15 %
Мы используем cookies
Соглашаюсь